sensor_id;sensor_type;location;lat;lon;timestamp;pressure;altitude;pressure_sealevel;temperature;humidity
64675;BME280;51090;51.512;11.332;2023-09-18T00:00:05;99018.31;;;18.62;100.00
64675;BME280;51090;51.512;11.332;2023-09-18T00:02:34;99016.56;;;18.50;100.00
64675;BME280;51090;51.512;11.332;2023-09-18T00:05:00;99031.94;;;18.55;100.00
64675;BME280;51090;51.512;11.332;2023-09-18T00:07:26;99033.50;;;18.51;100.00
64675;BME280;51090;51.512;11.332;2023-09-18T00:09:52;99025.66;;;18.49;100.00
64675;BME280;51090;51.512;11.332;2023-09-18T00:12:18;99026.97;;;18.47;100.00
64675;BME280;51090;51.512;11.332;2023-09-18T00:14:47;99031.53;;;18.46;100.00
64675;BME280;51090;51.512;11.332;2023-09-18T00:17:13;99018.84;;;18.42;100.00
64675;BME280;51090;51.512;11.332;2023-09-18T00:19:38;99017.00;;;18.42;100.00
64675;BME280;51090;51.512;11.332;2023-09-18T00:22:04;99013.75;;;18.40;100.00
64675;BME280;51090;51.512;11.332;2023-09-18T00:24:31;99001.63;;;18.38;100.00
64675;BME280;51090;51.512;11.332;2023-09-18T00:26:57;98999.44;;;18.35;100.00
64675;BME280;51090;51.512;11.332;2023-09-18T00:29:23;98991.63;;;18.33;100.00
64675;BME280;51090;51.512;11.332;2023-09-18T00:31:49;98985.88;;;18.24;100.00
64675;BME280;51090;51.512;11.332;2023-09-18T00:34:14;98992.03;;;18.25;100.00
64675;BME280;51090;51.512;11.332;2023-09-18T00:36:40;98992.53;;;18.22;100.00
64675;BME280;51090;51.512;11.332;2023-09-18T00:39:06;98984.97;;;18.19;100.00
64675;BME280;51090;51.512;11.332;2023-09-18T00:41:32;98979.03;;;18.17;100.00
64675;BME280;51090;51.512;11.332;2023-09-18T00:43:57;98980.84;;;18.11;100.00
64675;BME280;51090;51.512;11.332;2023-09-18T00:46:23;98960.03;;;18.01;100.00
64675;BME280;51090;51.512;11.332;2023-09-18T00:48:50;98971.41;;;18.09;100.00
64675;BME280;51090;51.512;11.332;2023-09-18T00:51:16;98968.38;;;18.05;100.00
64675;BME280;51090;51.512;11.332;2023-09-18T00:53:47;98960.59;;;18.03;100.00
64675;BME280;51090;51.512;11.332;2023-09-18T00:56:14;98955.97;;;17.99;100.00
64675;BME280;51090;51.512;11.332;2023-09-18T00:58:41;98944.88;;;17.95;100.00
64675;BME280;51090;51.512;11.332;2023-09-18T01:01:06;98937.25;;;17.87;100.00
64675;BME280;51090;51.512;11.332;2023-09-18T01:03:34;98921.91;;;17.82;100.00
64675;BME280;51090;51.512;11.332;2023-09-18T01:06:00;98934.91;;;17.91;100.00
64675;BME280;51090;51.512;11.332;2023-09-18T01:08:25;98933.53;;;17.88;100.00
64675;BME280;51090;51.512;11.332;2023-09-18T01:11:21;98939.72;;;17.89;100.00
64675;BME280;51090;51.512;11.332;2023-09-18T01:14:03;98936.47;;;17.87;100.00
64675;BME280;51090;51.512;11.332;2023-09-18T01:16:39;98924.03;;;17.80;100.00
64675;BME280;51090;51.512;11.332;2023-09-18T01:19:06;98936.59;;;17.80;100.00
64675;BME280;51090;51.512;11.332;2023-09-18T01:21:32;98932.06;;;17.80;100.00
64675;BME280;51090;51.512;11.332;2023-09-18T01:23:58;98921.56;;;17.79;100.00
64675;BME280;51090;51.512;11.332;2023-09-18T01:26:23;98924.47;;;17.77;100.00
64675;BME280;51090;51.512;11.332;2023-09-18T01:28:49;98923.91;;;17.75;100.00
64675;BME280;51090;51.512;11.332;2023-09-18T01:31:15;98920.66;;;17.73;100.00
64675;BME280;51090;51.512;11.332;2023-09-18T01:33:44;98922.78;;;17.71;100.00
64675;BME280;51090;51.512;11.332;2023-09-18T01:36:13;98921.06;;;17.65;100.00
64675;BME280;51090;51.512;11.332;2023-09-18T01:38:42;98904.34;;;17.58;100.00
64675;BME280;51090;51.512;11.332;2023-09-18T01:41:07;98902.47;;;17.58;100.00
64675;BME280;51090;51.512;11.332;2023-09-18T01:43:34;98909.44;;;17.59;100.00
64675;BME280;51090;51.512;11.332;2023-09-18T01:46:01;98903.25;;;17.59;100.00
64675;BME280;51090;51.512;11.332;2023-09-18T01:48:26;98896.28;;;17.58;100.00
64675;BME280;51090;51.512;11.332;2023-09-18T01:50:52;98902.69;;;17.57;100.00
64675;BME280;51090;51.512;11.332;2023-09-18T01:53:18;98901.56;;;17.53;100.00
64675;BME280;51090;51.512;11.332;2023-09-18T01:55:44;98897.00;;;17.53;100.00
64675;BME280;51090;51.512;11.332;2023-09-18T01:58:09;98893.53;;;17.53;100.00
64675;BME280;51090;51.512;11.332;2023-09-18T02:00:35;98892.16;;;17.50;100.00
64675;BME280;51090;51.512;11.332;2023-09-18T02:03:01;98892.38;;;17.49;100.00
64675;BME280;51090;51.512;11.332;2023-09-18T02:05:26;98884.34;;;17.49;100.00
64675;BME280;51090;51.512;11.332;2023-09-18T02:07:52;98882.72;;;17.48;100.00
64675;BME280;51090;51.512;11.332;2023-09-18T02:10:18;98878.41;;;17.47;100.00
64675;BME280;51090;51.512;11.332;2023-09-18T02:12:44;98877.84;;;17.45;100.00
64675;BME280;51090;51.512;11.332;2023-09-18T02:15:10;98876.69;;;17.40;100.00
64675;BME280;51090;51.512;11.332;2023-09-18T02:17:36;98871.09;;;17.42;100.00
64675;BME280;51090;51.512;11.332;2023-09-18T02:20:04;98871.91;;;17.42;100.00
64675;BME280;51090;51.512;11.332;2023-09-18T02:22:37;98867.84;;;17.40;100.00
64675;BME280;51090;51.512;11.332;2023-09-18T02:25:06;98867.50;;;17.36;100.00
64675;BME280;51090;51.512;11.332;2023-09-18T02:27:32;98866.97;;;17.34;100.00
64675;BME280;51090;51.512;11.332;2023-09-18T02:29:58;98860.75;;;17.34;100.00
64675;BME280;51090;51.512;11.332;2023-09-18T02:32:24;98855.09;;;17.30;100.00
64675;BME280;51090;51.512;11.332;2023-09-18T02:34:50;98862.06;;;17.31;100.00
64675;BME280;51090;51.512;11.332;2023-09-18T02:37:15;98857.78;;;17.30;100.00
64675;BME280;51090;51.512;11.332;2023-09-18T02:39:41;98860.69;;;17.29;100.00
64675;BME280;51090;51.512;11.332;2023-09-18T02:42:07;98867.09;;;17.28;100.00
64675;BME280;51090;51.512;11.332;2023-09-18T02:44:33;98861.44;;;17.24;100.00
64675;BME280;51090;51.512;11.332;2023-09-18T02:46:59;98857.91;;;17.24;100.00
64675;BME280;51090;51.512;11.332;2023-09-18T02:49:24;98854.69;;;17.22;100.00
64675;BME280;51090;51.512;11.332;2023-09-18T02:51:50;98852.25;;;17.20;100.00
64675;BME280;51090;51.512;11.332;2023-09-18T02:54:16;98856.00;;;17.19;100.00
64675;BME280;51090;51.512;11.332;2023-09-18T02:56:41;98852.72;;;17.17;100.00
64675;BME280;51090;51.512;11.332;2023-09-18T02:59:07;98856.44;;;17.16;100.00
64675;BME280;51090;51.512;11.332;2023-09-18T03:01:34;98854.03;;;17.14;100.00
64675;BME280;51090;51.512;11.332;2023-09-18T03:04:00;98855.31;;;17.12;100.00
64675;BME280;51090;51.512;11.332;2023-09-18T03:06:26;98847.28;;;17.12;100.00
64675;BME280;51090;51.512;11.332;2023-09-18T03:08:52;98838.59;;;17.05;100.00
64675;BME280;51090;51.512;11.332;2023-09-18T03:11:18;98839.38;;;17.05;100.00
64675;BME280;51090;51.512;11.332;2023-09-18T03:13:46;98837.53;;;17.06;100.00
64675;BME280;51090;51.512;11.332;2023-09-18T03:16:12;98813.19;;;16.90;100.00
64675;BME280;51090;51.512;11.332;2023-09-18T03:18:38;98821.53;;;16.94;100.00
64675;BME280;51090;51.512;11.332;2023-09-18T03:21:03;98824.06;;;17.01;100.00
64675;BME280;51090;51.512;11.332;2023-09-18T03:23:30;98825.38;;;16.98;100.00
64675;BME280;51090;51.512;11.332;2023-09-18T03:25:55;98814.88;;;16.96;100.00
64675;BME280;51090;51.512;11.332;2023-09-18T03:28:21;98814.31;;;16.94;100.00
64675;BME280;51090;51.512;11.332;2023-09-18T03:30:47;98808.38;;;16.92;100.00
64675;BME280;51090;51.512;11.332;2023-09-18T03:33:12;98809.22;;;16.93;100.00
64675;BME280;51090;51.512;11.332;2023-09-18T03:35:49;98806.84;;;16.96;100.00
64675;BME280;51090;51.512;11.332;2023-09-18T03:38:15;98794.16;;;16.92;100.00
64675;BME280;51090;51.512;11.332;2023-09-18T03:40:41;98787.03;;;16.81;100.00
64675;BME280;51090;51.512;11.332;2023-09-18T03:43:08;98786.31;;;16.85;100.00
64675;BME280;51090;51.512;11.332;2023-09-18T03:45:34;98783.38;;;16.87;100.00
64675;BME280;51090;51.512;11.332;2023-09-18T03:48:00;98782.56;;;16.86;100.00
64675;BME280;51090;51.512;11.332;2023-09-18T03:50:25;98784.34;;;16.81;100.00
64675;BME280;51090;51.512;11.332;2023-09-18T03:52:53;98787.25;;;16.79;100.00
64675;BME280;51090;51.512;11.332;2023-09-18T03:55:19;98783.16;;;16.76;100.00
64675;BME280;51090;51.512;11.332;2023-09-18T03:57:45;98777.22;;;16.74;100.00
64675;BME280;51090;51.512;11.332;2023-09-18T04:00:14;98774.56;;;16.74;100.00
64675;BME280;51090;51.512;11.332;2023-09-18T04:02:40;98767.59;;;16.73;100.00
64675;BME280;51090;51.512;11.332;2023-09-18T04:05:06;98757.38;;;16.70;100.00
64675;BME280;51090;51.512;11.332;2023-09-18T04:07:33;98754.91;;;16.69;100.00
64675;BME280;51090;51.512;11.332;2023-09-18T04:09:59;98754.34;;;16.67;100.00
64675;BME280;51090;51.512;11.332;2023-09-18T04:12:25;98747.38;;;16.66;100.00
64675;BME280;51090;51.512;11.332;2023-09-18T04:14:52;98744.69;;;16.66;100.00
64675;BME280;51090;51.512;11.332;2023-09-18T04:17:18;98740.16;;;16.66;100.00
64675;BME280;51090;51.512;11.332;2023-09-18T04:19:44;98736.44;;;16.67;100.00
64675;BME280;51090;51.512;11.332;2023-09-18T04:22:11;98739.34;;;16.66;100.00
64675;BME280;51090;51.512;11.332;2023-09-18T04:24:37;98733.19;;;16.65;100.00
64675;BME280;51090;51.512;11.332;2023-09-18T04:27:03;98736.66;;;16.66;100.00
64675;BME280;51090;51.512;11.332;2023-09-18T04:29:29;98725.88;;;16.61;100.00
64675;BME280;51090;51.512;11.332;2023-09-18T04:31:55;98731.00;;;16.62;100.00
64675;BME280;51090;51.512;11.332;2023-09-18T04:34:21;98741.34;;;16.59;100.00
64675;BME280;51090;51.512;11.332;2023-09-18T04:36:48;98723.81;;;16.51;100.00
64675;BME280;51090;51.512;11.332;2023-09-18T04:39:14;98730.91;;;16.57;100.00
64675;BME280;51090;51.512;11.332;2023-09-18T04:41:39;98707.09;;;16.44;100.00
64675;BME280;51090;51.512;11.332;2023-09-18T04:44:05;98724.41;;;16.53;100.00
64675;BME280;51090;51.512;11.332;2023-09-18T04:46:34;98720.34;;;16.50;100.00
64675;BME280;51090;51.512;11.332;2023-09-18T04:49:00;98720.03;;;16.47;100.00
64675;BME280;51090;51.512;11.332;2023-09-18T04:51:26;98714.31;;;16.43;100.00
64675;BME280;51090;51.512;11.332;2023-09-18T04:53:52;98693.53;;;16.33;100.00
64675;BME280;51090;51.512;11.332;2023-09-18T04:56:18;98696.00;;;16.35;100.00
64675;BME280;51090;51.512;11.332;2023-09-18T04:58:43;98699.81;;;16.39;100.00
64675;BME280;51090;51.512;11.332;2023-09-18T05:01:09;98695.50;;;16.38;100.00
64675;BME280;51090;51.512;11.332;2023-09-18T05:03:36;98695.00;;;16.41;100.00
64675;BME280;51090;51.512;11.332;2023-09-18T05:06:02;98688.38;;;16.44;100.00
64675;BME280;51090;51.512;11.332;2023-09-18T05:08:31;98673.94;;;16.45;100.00
64675;BME280;51090;51.512;11.332;2023-09-18T05:10:57;98673.94;;;16.45;100.00
64675;BME280;51090;51.512;11.332;2023-09-18T05:13:23;98654.25;;;16.34;100.00
64675;BME280;51090;51.512;11.332;2023-09-18T05:15:49;98676.94;;;16.48;100.00
64675;BME280;51090;51.512;11.332;2023-09-18T05:18:14;98682.88;;;16.50;100.00
64675;BME280;51090;51.512;11.332;2023-09-18T05:20:40;98684.03;;;16.54;100.00
64675;BME280;51090;51.512;11.332;2023-09-18T05:23:06;98679.22;;;16.57;100.00
64675;BME280;51090;51.512;11.332;2023-09-18T05:25:35;98677.47;;;16.62;100.00
64675;BME280;51090;51.512;11.332;2023-09-18T05:28:03;98680.13;;;16.62;100.00
64675;BME280;51090;51.512;11.332;2023-09-18T05:30:35;98672.19;;;16.67;100.00
64675;BME280;51090;51.512;11.332;2023-09-18T05:33:05;98668.75;;;16.72;100.00
64675;BME280;51090;51.512;11.332;2023-09-18T05:35:36;98662.69;;;16.76;100.00
64675;BME280;51090;51.512;11.332;2023-09-18T05:38:03;98660.50;;;16.73;100.00
64675;BME280;51090;51.512;11.332;2023-09-18T05:40:29;98668.50;;;16.85;100.00
64675;BME280;51090;51.512;11.332;2023-09-18T05:42:56;98668.56;;;16.90;100.00
64675;BME280;51090;51.512;11.332;2023-09-18T05:45:23;98672.84;;;16.91;100.00
64675;BME280;51090;51.512;11.332;2023-09-18T05:47:50;98661.66;;;16.94;100.00
64675;BME280;51090;51.512;11.332;2023-09-18T05:50:16;98651.81;;;17.00;100.00
64675;BME280;51090;51.512;11.332;2023-09-18T05:52:44;98655.94;;;17.08;100.00
64675;BME280;51090;51.512;11.332;2023-09-18T05:55:10;98683.94;;;17.17;100.00
64675;BME280;51090;51.512;11.332;2023-09-18T05:57:37;98686.78;;;17.27;100.00
64675;BME280;51090;51.512;11.332;2023-09-18T06:00:03;98674.88;;;17.40;100.00
64675;BME280;51090;51.512;11.332;2023-09-18T06:02:30;98663.22;;;17.51;100.00
64675;BME280;51090;51.512;11.332;2023-09-18T06:04:58;98658.56;;;17.63;100.00
64675;BME280;51090;51.512;11.332;2023-09-18T06:07:26;98649.09;;;17.78;100.00
64675;BME280;51090;51.512;11.332;2023-09-18T06:09:53;98657.81;;;17.90;100.00
64675;BME280;51090;51.512;11.332;2023-09-18T06:12:19;98635.47;;;18.06;100.00
64675;BME280;51090;51.512;11.332;2023-09-18T06:14:44;98629.22;;;18.28;100.00
64675;BME280;51090;51.512;11.332;2023-09-18T06:17:15;98623.78;;;18.50;100.00
64675;BME280;51090;51.512;11.332;2023-09-18T06:19:42;98611.56;;;18.69;100.00
64675;BME280;51090;51.512;11.332;2023-09-18T06:22:07;98616.28;;;18.84;100.00
64675;BME280;51090;51.512;11.332;2023-09-18T06:24:34;98608.06;;;19.01;100.00
64675;BME280;51090;51.512;11.332;2023-09-18T06:27:01;98608.69;;;19.24;100.00
64675;BME280;51090;51.512;11.332;2023-09-18T06:29:26;98610.94;;;19.42;100.00
64675;BME280;51090;51.512;11.332;2023-09-18T06:31:52;98610.72;;;19.59;100.00
64675;BME280;51090;51.512;11.332;2023-09-18T06:34:18;98597.91;;;19.76;100.00
64675;BME280;51090;51.512;11.332;2023-09-18T06:36:43;98602.22;;;19.88;100.00
64675;BME280;51090;51.512;11.332;2023-09-18T06:39:09;98604.13;;;19.97;100.00
64675;BME280;51090;51.512;11.332;2023-09-18T06:41:35;98599.31;;;20.10;100.00
64675;BME280;51090;51.512;11.332;2023-09-18T06:44:02;98592.06;;;20.26;100.00
64675;BME280;51090;51.512;11.332;2023-09-18T06:46:29;98610.09;;;20.40;100.00
64675;BME280;51090;51.512;11.332;2023-09-18T06:48:54;98591.81;;;20.42;100.00
64675;BME280;51090;51.512;11.332;2023-09-18T06:51:22;98598.78;;;20.49;100.00
64675;BME280;51090;51.512;11.332;2023-09-18T06:53:48;98599.63;;;20.59;100.00
64675;BME280;51090;51.512;11.332;2023-09-18T06:56:14;98602.03;;;20.71;100.00
64675;BME280;51090;51.512;11.332;2023-09-18T06:58:39;98598.25;;;20.82;100.00
64675;BME280;51090;51.512;11.332;2023-09-18T07:01:05;98589.59;;;20.91;100.00
64675;BME280;51090;51.512;11.332;2023-09-18T07:03:35;98597.66;;;21.06;100.00
64675;BME280;51090;51.512;11.332;2023-09-18T07:06:02;98591.69;;;21.14;100.00
64675;BME280;51090;51.512;11.332;2023-09-18T07:08:30;98589.50;;;21.26;100.00
64675;BME280;51090;51.512;11.332;2023-09-18T07:10:56;98568.19;;;21.35;100.00
64675;BME280;51090;51.512;11.332;2023-09-18T07:13:22;98573.78;;;21.49;100.00
64675;BME280;51090;51.512;11.332;2023-09-18T07:15:48;98557.06;;;21.47;100.00
64675;BME280;51090;51.512;11.332;2023-09-18T07:18:14;98579.09;;;21.64;100.00
64675;BME280;51090;51.512;11.332;2023-09-18T07:20:45;98575.81;;;21.72;100.00
64675;BME280;51090;51.512;11.332;2023-09-18T07:23:11;98571.97;;;21.89;100.00
64675;BME280;51090;51.512;11.332;2023-09-18T07:25:37;98584.78;;;22.07;100.00
64675;BME280;51090;51.512;11.332;2023-09-18T07:28:09;98584.97;;;22.21;100.00
64675;BME280;51090;51.512;11.332;2023-09-18T07:30:38;98554.69;;;22.24;100.00
64675;BME280;51090;51.512;11.332;2023-09-18T07:33:04;98578.53;;;22.51;100.00
64675;BME280;51090;51.512;11.332;2023-09-18T07:35:30;98574.69;;;22.57;100.00
64675;BME280;51090;51.512;11.332;2023-09-18T07:37:56;98582.78;;;22.57;100.00
64675;BME280;51090;51.512;11.332;2023-09-18T07:40:22;98595.75;;;22.55;100.00
64675;BME280;51090;51.512;11.332;2023-09-18T07:42:48;98591.72;;;22.53;100.00
64675;BME280;51090;51.512;11.332;2023-09-18T07:45:14;98585.88;;;22.46;100.00
64675;BME280;51090;51.512;11.332;2023-09-18T07:47:40;98579.97;;;22.38;100.00
64675;BME280;51090;51.512;11.332;2023-09-18T07:50:06;98575.16;;;22.35;100.00
64675;BME280;51090;51.512;11.332;2023-09-18T07:52:32;98583.47;;;22.39;100.00
64675;BME280;51090;51.512;11.332;2023-09-18T07:54:59;98569.63;;;22.51;100.00
64675;BME280;51090;51.512;11.332;2023-09-18T07:57:26;98541.69;;;22.60;100.00
64675;BME280;51090;51.512;11.332;2023-09-18T07:59:53;98557.28;;;22.69;100.00
64675;BME280;51090;51.512;11.332;2023-09-18T08:02:19;98544.38;;;22.90;100.00
64675;BME280;51090;51.512;11.332;2023-09-18T08:04:45;98571.47;;;23.09;100.00
64675;BME280;51090;51.512;11.332;2023-09-18T08:07:10;98584.25;;;23.27;100.00
64675;BME280;51090;51.512;11.332;2023-09-18T08:09:37;98600.22;;;23.47;100.00
64675;BME280;51090;51.512;11.332;2023-09-18T08:12:08;98588.34;;;23.67;100.00
64675;BME280;51090;51.512;11.332;2023-09-18T08:14:34;98585.97;;;23.85;100.00
64675;BME280;51090;51.512;11.332;2023-09-18T08:17:02;98584.78;;;24.10;100.00
64675;BME280;51090;51.512;11.332;2023-09-18T08:19:33;98592.06;;;24.28;100.00
64675;BME280;51090;51.512;11.332;2023-09-18T08:21:59;98585.59;;;24.43;100.00
64675;BME280;51090;51.512;11.332;2023-09-18T08:24:29;98590.06;;;24.53;100.00
64675;BME280;51090;51.512;11.332;2023-09-18T08:26:55;98591.59;;;24.59;100.00
64675;BME280;51090;51.512;11.332;2023-09-18T08:29:22;98594.75;;;24.66;100.00
64675;BME280;51090;51.512;11.332;2023-09-18T08:31:48;98599.16;;;24.76;100.00
64675;BME280;51090;51.512;11.332;2023-09-18T08:34:14;98600.28;;;24.89;100.00
64675;BME280;51090;51.512;11.332;2023-09-18T08:36:40;98603.22;;;25.06;100.00
64675;BME280;51090;51.512;11.332;2023-09-18T08:39:06;98609.38;;;25.26;100.00
64675;BME280;51090;51.512;11.332;2023-09-18T08:41:32;98606.75;;;25.48;100.00
64675;BME280;51090;51.512;11.332;2023-09-18T08:44:03;98614.34;;;25.74;100.00
64675;BME280;51090;51.512;11.332;2023-09-18T08:46:30;98615.56;;;25.95;100.00
64675;BME280;51090;51.512;11.332;2023-09-18T08:48:57;98615.31;;;26.05;100.00
64675;BME280;51090;51.512;11.332;2023-09-18T08:51:24;98619.97;;;26.05;99.36
64675;BME280;51090;51.512;11.332;2023-09-18T08:53:50;98609.81;;;25.97;98.37
64675;BME280;51090;51.512;11.332;2023-09-18T08:56:17;98631.31;;;26.07;98.96
64675;BME280;51090;51.512;11.332;2023-09-18T08:58:43;98620.44;;;26.07;99.00
64675;BME280;51090;51.512;11.332;2023-09-18T09:01:10;98621.84;;;26.04;97.62
64675;BME280;51090;51.512;11.332;2023-09-18T09:03:41;98627.81;;;25.79;96.16
64675;BME280;51090;51.512;11.332;2023-09-18T09:06:13;98619.22;;;25.49;97.68
64675;BME280;51090;51.512;11.332;2023-09-18T09:08:39;98611.38;;;25.20;98.41
64675;BME280;51090;51.512;11.332;2023-09-18T09:11:05;98614.16;;;25.01;99.52
64675;BME280;51090;51.512;11.332;2023-09-18T09:13:31;98610.94;;;24.85;99.54
64675;BME280;51090;51.512;11.332;2023-09-18T09:15:58;98613.91;;;24.70;99.72
64675;BME280;51090;51.512;11.332;2023-09-18T09:18:29;98615.69;;;24.61;99.22
64675;BME280;51090;51.512;11.332;2023-09-18T09:20:56;98623.63;;;24.57;99.91
64675;BME280;51090;51.512;11.332;2023-09-18T09:23:27;98623.41;;;24.53;100.00
64675;BME280;51090;51.512;11.332;2023-09-18T09:26:00;98623.78;;;24.47;100.00
64675;BME280;51090;51.512;11.332;2023-09-18T09:28:37;98622.59;;;24.34;99.79
64675;BME280;51090;51.512;11.332;2023-09-18T09:31:03;98624.66;;;24.23;100.00
64675;BME280;51090;51.512;11.332;2023-09-18T09:33:29;98608.06;;;24.11;100.00
64675;BME280;51090;51.512;11.332;2023-09-18T09:35:56;98612.22;;;24.03;100.00
64675;BME280;51090;51.512;11.332;2023-09-18T09:38:29;98612.34;;;24.12;100.00
64675;BME280;51090;51.512;11.332;2023-09-18T09:40:58;98614.38;;;24.39;100.00
64675;BME280;51090;51.512;11.332;2023-09-18T09:43:28;98614.25;;;24.82;100.00
64675;BME280;51090;51.512;11.332;2023-09-18T09:46:02;98621.84;;;25.27;100.00
64675;BME280;51090;51.512;11.332;2023-09-18T09:48:30;98611.66;;;25.60;99.16
64675;BME280;51090;51.512;11.332;2023-09-18T09:51:00;98596.19;;;25.60;97.37
64675;BME280;51090;51.512;11.332;2023-09-18T09:53:46;98623.50;;;25.92;94.39
64675;BME280;51090;51.512;11.332;2023-09-18T09:56:17;98621.84;;;26.04;96.34
64675;BME280;51090;51.512;11.332;2023-09-18T09:59:01;98627.56;;;26.17;93.48
64675;BME280;51090;51.512;11.332;2023-09-18T10:01:34;98613.72;;;26.27;95.82
64675;BME280;51090;51.512;11.332;2023-09-18T10:04:05;98623.06;;;26.35;94.29
64675;BME280;51090;51.512;11.332;2023-09-18T10:06:35;98616.06;;;26.42;94.95
64675;BME280;51090;51.512;11.332;2023-09-18T10:09:06;98603.09;;;26.39;91.34
64675;BME280;51090;51.512;11.332;2023-09-18T10:11:34;98608.53;;;26.39;94.20
64675;BME280;51090;51.512;11.332;2023-09-18T10:14:19;98602.97;;;26.44;92.73
64675;BME280;51090;51.512;11.332;2023-09-18T10:16:55;98600.72;;;26.60;91.84
64675;BME280;51090;51.512;11.332;2023-09-18T10:22:38;98611.81;;;27.04;91.23
64675;BME280;51090;51.512;11.332;2023-09-18T10:25:15;98610.28;;;27.20;89.60
64675;BME280;51090;51.512;11.332;2023-09-18T10:27:48;98624.13;;;27.32;89.76
64675;BME280;51090;51.512;11.332;2023-09-18T10:30:18;98592.59;;;27.31;91.37
64675;BME280;51090;51.512;11.332;2023-09-18T10:32:45;98614.09;;;27.59;91.85
64675;BME280;51090;51.512;11.332;2023-09-18T10:35:12;98612.53;;;27.75;90.94
64675;BME280;51090;51.512;11.332;2023-09-18T10:37:38;98609.53;;;27.86;90.37
64675;BME280;51090;51.512;11.332;2023-09-18T10:40:08;98608.41;;;27.95;89.75
64675;BME280;51090;51.512;11.332;2023-09-18T10:42:38;98617.38;;;27.96;88.03
64675;BME280;51090;51.512;11.332;2023-09-18T10:45:05;98607.09;;;27.84;88.87
64675;BME280;51090;51.512;11.332;2023-09-18T10:47:32;98613.19;;;27.72;88.47
64675;BME280;51090;51.512;11.332;2023-09-18T10:49:59;98610.75;;;27.62;89.45
64675;BME280;51090;51.512;11.332;2023-09-18T10:52:26;98616.19;;;27.71;90.06
64675;BME280;51090;51.512;11.332;2023-09-18T10:54:52;98605.94;;;27.76;89.64
64675;BME280;51090;51.512;11.332;2023-09-18T10:57:18;98605.19;;;27.85;89.49
64675;BME280;51090;51.512;11.332;2023-09-18T10:59:45;98605.84;;;27.90;88.87
64675;BME280;51090;51.512;11.332;2023-09-18T11:02:15;98611.63;;;28.06;88.82
64675;BME280;51090;51.512;11.332;2023-09-18T11:04:43;98613.38;;;28.19;88.83
64675;BME280;51090;51.512;11.332;2023-09-18T11:07:18;98610.19;;;28.26;87.63
64675;BME280;51090;51.512;11.332;2023-09-18T11:09:45;98619.31;;;28.30;87.93
64675;BME280;51090;51.512;11.332;2023-09-18T11:12:15;98610.31;;;28.30;86.91
64675;BME280;51090;51.512;11.332;2023-09-18T11:14:57;98608.56;;;28.34;85.06
64675;BME280;51090;51.512;11.332;2023-09-18T11:17:37;98615.63;;;28.35;84.76
64675;BME280;51090;51.512;11.332;2023-09-18T11:20:18;98623.66;;;28.31;84.99
64675;BME280;51090;51.512;11.332;2023-09-18T11:25:36;98613.06;;;28.30;81.05
64675;BME280;51090;51.512;11.332;2023-09-18T11:28:04;98618.34;;;28.35;84.62
64675;BME280;51090;51.512;11.332;2023-09-18T11:30:37;98617.03;;;28.41;83.30
64675;BME280;51090;51.512;11.332;2023-09-18T11:33:06;98618.66;;;28.33;82.94
64675;BME280;51090;51.512;11.332;2023-09-18T11:35:35;98625.25;;;28.23;83.35
64675;BME280;51090;51.512;11.332;2023-09-18T11:38:07;98605.38;;;28.14;80.67
64675;BME280;51090;51.512;11.332;2023-09-18T11:40:38;98585.97;;;28.07;81.70
64675;BME280;51090;51.512;11.332;2023-09-18T11:43:25;98593.81;;;28.00;80.30
64675;BME280;51090;51.512;11.332;2023-09-18T11:45:58;98596.69;;;27.95;81.99
64675;BME280;51090;51.512;11.332;2023-09-18T11:48:25;98601.34;;;27.94;83.44
64675;BME280;51090;51.512;11.332;2023-09-18T11:50:53;98600.06;;;27.92;83.40
64675;BME280;51090;51.512;11.332;2023-09-18T11:53:20;98602.94;;;27.87;82.75
64675;BME280;51090;51.512;11.332;2023-09-18T11:55:47;98592.19;;;27.73;81.53
64675;BME280;51090;51.512;11.332;2023-09-18T11:58:13;98589.75;;;27.63;80.67
64675;BME280;51090;51.512;11.332;2023-09-18T12:00:40;98590.25;;;27.65;82.09
64675;BME280;51090;51.512;11.332;2023-09-18T12:03:20;98582.09;;;27.82;80.24
64675;BME280;51090;51.512;11.332;2023-09-18T12:06:01;98570.13;;;28.00;78.50
64675;BME280;51090;51.512;11.332;2023-09-18T12:08:31;98586.09;;;28.28;81.57
64675;BME280;51090;51.512;11.332;2023-09-18T12:10:58;98586.75;;;28.34;77.48
64675;BME280;51090;51.512;11.332;2023-09-18T12:13:27;98597.34;;;28.27;77.56
64675;BME280;51090;51.512;11.332;2023-09-18T12:16:02;98584.53;;;28.18;77.03
64675;BME280;51090;51.512;11.332;2023-09-18T12:18:31;98593.97;;;28.30;79.28
64675;BME280;51090;51.512;11.332;2023-09-18T12:20:58;98599.28;;;28.26;79.58
64675;BME280;51090;51.512;11.332;2023-09-18T12:23:25;98606.16;;;28.32;78.47
64675;BME280;51090;51.512;11.332;2023-09-18T12:25:59;98619.31;;;28.39;77.17
64675;BME280;51090;51.512;11.332;2023-09-18T12:28:25;98610.47;;;28.51;78.93
64675;BME280;51090;51.512;11.332;2023-09-18T12:30:56;98610.94;;;28.61;78.84
64675;BME280;51090;51.512;11.332;2023-09-18T12:33:23;98621.06;;;28.70;78.55
64675;BME280;51090;51.512;11.332;2023-09-18T12:35:50;98627.59;;;28.86;78.67
64675;BME280;51090;51.512;11.332;2023-09-18T12:38:18;98627.88;;;28.93;76.97
64675;BME280;51090;51.512;11.332;2023-09-18T12:40:50;98631.41;;;28.94;77.67
64675;BME280;51090;51.512;11.332;2023-09-18T12:43:17;98613.50;;;28.75;71.89
64675;BME280;51090;51.512;11.332;2023-09-18T12:45:44;98618.63;;;28.68;74.46
64675;BME280;51090;51.512;11.332;2023-09-18T12:48:12;98639.50;;;28.64;75.75
64675;BME280;51090;51.512;11.332;2023-09-18T12:50:38;98650.41;;;28.73;76.65